Time,TemperatureF,DewpointF,PressureIn,WindDirection,WindDirectionDegrees,WindSpeedMPH,WindSpeedGustMPH,Humidity,HourlyPrecipIn,Conditions,Clouds,dailyrainin,SoftwareType,DateUTC
2013-03-28 11:52:00,53.0,33.0,-100.00,WNW,298,6.0,11.0,47,-99.99,,,0.00,,2013-03-28 18:52:00,
2013-03-28 12:22:00,54.0,37.0,-100.00,WNW,291,7.0,11.0,52,0.00,,,0.00,,2013-03-28 19:22:00,
2013-03-28 12:32:00,54.0,37.0,-100.00,WNW,291,7.0,11.0,52,0.00,,,0.00,,2013-03-28 19:32:00,
2013-03-28 12:42:00,54.0,37.0,-100.00,WNW,291,7.0,11.0,52,0.00,,,0.00,,2013-03-28 19:42:00,
2013-03-28 12:52:00,54.0,37.0,-100.00,WNW,291,7.0,11.0,52,0.00,,,0.00,,2013-03-28 19:52:00,
2013-03-28 13:12:00,55.0,30.0,-100.00,WNW,299,6.0,12.0,38,0.00,,,0.00,,2013-03-28 20:12:00,
2013-03-28 13:22:00,55.0,30.0,-100.00,WNW,299,6.0,12.0,38,0.00,,,0.00,,2013-03-28 20:22:00,
2013-03-28 13:32:00,55.0,30.0,-100.00,WNW,299,6.0,12.0,38,0.00,,,0.00,,2013-03-28 20:32:00,
2013-03-28 13:42:00,55.0,30.0,-100.00,WNW,299,6.0,12.0,38,0.00,,,0.00,,2013-03-28 20:42:00,
2013-03-28 13:52:00,55.0,30.0,-100.00,WNW,299,6.0,12.0,38,0.00,,,0.00,,2013-03-28 20:52:00,
2013-03-28 14:12:00,55.0,27.0,-100.00,WNW,291,7.0,13.0,34,0.00,,,0.00,,2013-03-28 21:12:00,
2013-03-28 14:22:00,55.0,27.0,-100.00,WNW,291,7.0,13.0,34,0.00,,,0.00,,2013-03-28 21:22:00,
2013-03-28 14:32:00,55.0,27.0,-100.00,WNW,291,7.0,13.0,34,0.00,,,0.00,,2013-03-28 21:32:00,
2013-03-28 14:42:00,55.0,27.0,-100.00,WNW,291,7.0,13.0,34,0.00,,,0.00,,2013-03-28 21:42:00,
2013-03-28 14:52:00,55.0,27.0,-100.00,WNW,291,7.0,13.0,34,0.00,,,0.00,,2013-03-28 21:52:00,
2013-03-28 15:22:00,56.0,29.0,-100.00,WNW,286,8.0,12.0,35,0.00,,,0.00,,2013-03-28 22:22:00,
2013-03-28 15:32:00,56.0,29.0,-100.00,WNW,286,8.0,12.0,35,0.00,,,0.00,,2013-03-28 22:32:00,
2013-03-28 15:42:00,56.0,29.0,-100.00,WNW,286,8.0,12.0,35,0.00,,,0.00,,2013-03-28 22:42:00,
2013-03-28 15:52:00,56.0,29.0,-100.00,WNW,286,8.0,12.0,35,0.00,,,0.00,,2013-03-28 22:52:00,
2013-03-28 16:12:00,56.0,32.0,-100.00,WNW,288,7.0,14.0,40,0.00,,,0.00,,2013-03-28 23:12:00,
2013-03-28 16:22:00,56.0,32.0,-100.00,WNW,288,7.0,14.0,40,0.00,,,0.00,,2013-03-28 23:22:00,
2013-03-28 16:32:00,56.0,32.0,-100.00,WNW,288,7.0,14.0,40,0.00,,,0.00,,2013-03-28 23:32:00,
2013-03-28 16:42:00,56.0,32.0,-100.00,WNW,288,7.0,14.0,40,0.00,,,0.00,,2013-03-28 23:42:00,
2013-03-28 16:52:00,56.0,32.0,-100.00,WNW,288,7.0,14.0,40,0.00,,,0.00,,2013-03-28 23:52:00,
2013-03-28 17:12:00,51.0,33.0,-100.00,WNW,295,6.0,12.0,49,0.00,,,0.00,,2013-03-29 00:12:00,
2013-03-28 17:22:00,51.0,33.0,-100.00,WNW,295,6.0,12.0,49,0.00,,,0.00,,2013-03-29 00:22:00,
2013-03-28 17:32:00,51.0,33.0,-100.00,WNW,295,6.0,12.0,49,0.00,,,0.00,,2013-03-29 00:32:00,
2013-03-28 17:42:00,51.0,33.0,-100.00,WNW,295,6.0,12.0,49,0.00,,,0.00,,2013-03-29 00:42:00,
2013-03-28 17:51:00,51.0,33.0,-100.00,WNW,295,6.0,12.0,49,0.00,,,0.00,,2013-03-29 00:51:00,
2013-03-28 18:12:00,50.0,31.0,-100.00,WNW,287,5.0,11.0,47,0.00,,,-99.99,,2013-03-29 01:12:00,
2013-03-28 18:22:00,50.0,31.0,-100.00,WNW,287,5.0,11.0,47,0.00,,,-99.99,,2013-03-29 01:22:00,
2013-03-28 18:32:00,50.0,31.0,-100.00,WNW,287,5.0,11.0,47,0.00,,,-99.99,,2013-03-29 01:32:00,
2013-03-28 18:42:00,50.0,31.0,-100.00,WNW,287,5.0,11.0,47,0.00,,,-99.99,,2013-03-29 01:42:00,
2013-03-28 18:52:00,50.0,31.0,-100.00,WNW,287,5.0,11.0,47,0.00,,,-99.99,,2013-03-29 01:52:00,
2013-03-28 19:12:00,48.0,31.0,-100.00,WNW,284,3.0,11.0,52,0.00,,,-99.99,,2013-03-29 02:12:00,
2013-03-28 19:22:00,48.0,31.0,-100.00,WNW,284,3.0,11.0,52,0.00,,,-99.99,,2013-03-29 02:22:00,
2013-03-28 19:32:00,48.0,31.0,-100.00,WNW,284,3.0,11.0,52,0.00,,,-99.99,,2013-03-29 02:32:00,
2013-03-28 19:42:00,48.0,31.0,-100.00,WNW,284,3.0,11.0,52,0.00,,,-99.99,,2013-03-29 02:42:00,
2013-03-28 19:52:00,48.0,31.0,-100.00,WNW,284,3.0,11.0,52,0.00,,,-99.99,,2013-03-29 02:52:00,
2013-03-28 20:21:00,46.0,30.0,-100.00,East,91,2.0,4.0,53,0.00,,,-99.99,,2013-03-29 03:21:00,
2013-03-28 20:32:00,46.0,30.0,-100.00,East,91,2.0,4.0,53,0.00,,,-99.99,,2013-03-29 03:32:00,
2013-03-28 20:42:00,46.0,30.0,-100.00,East,91,2.0,4.0,53,0.00,,,-99.99,,2013-03-29 03:42:00,
2013-03-28 20:52:00,46.0,30.0,-100.00,East,91,2.0,4.0,53,0.00,,,-99.99,,2013-03-29 03:52:00,
2013-03-28 21:22:00,44.0,31.0,-100.00,SE,133,2.0,5.0,59,0.00,,,-99.99,,2013-03-29 04:22:00,
2013-03-28 21:33:00,44.0,31.0,-100.00,SE,133,2.0,5.0,59,0.00,,,-99.99,,2013-03-29 04:33:00,
2013-03-28 21:42:00,44.0,31.0,-100.00,SE,133,2.0,5.0,59,0.00,,,-99.99,,2013-03-29 04:42:00,
2013-03-28 21:52:00,44.0,31.0,-100.00,SE,133,2.0,5.0,59,0.00,,,-99.99,,2013-03-29 04:52:00,
2013-03-28 22:12:00,47.0,31.0,-100.00,West,279,2.0,5.0,53,0.00,,,-99.99,,2013-03-29 05:12:00,
2013-03-28 22:22:00,47.0,31.0,-100.00,West,279,2.0,5.0,53,0.00,,,-99.99,,2013-03-29 05:22:00,
2013-03-28 22:32:00,47.0,31.0,-100.00,West,279,2.0,5.0,53,0.00,,,-99.99,,2013-03-29 05:32:00,
2013-03-28 22:43:00,47.0,31.0,-100.00,West,279,2.0,5.0,53,0.00,,,-99.99,,2013-03-29 05:43:00,
2013-03-28 22:52:00,47.0,31.0,-100.00,West,279,2.0,5.0,53,0.00,,,-99.99,,2013-03-29 05:52:00,
2013-03-28 23:22:00,41.0,29.0,-100.00,SE,137,2.0,5.0,62,0.00,,,-99.99,,2013-03-29 06:22:00,
2013-03-28 23:32:00,41.0,29.0,-100.00,SE,137,2.0,5.0,62,0.00,,,-99.99,,2013-03-29 06:32:00,
2013-03-28 23:42:00,41.0,29.0,-100.00,SE,137,2.0,5.0,62,0.00,,,-99.99,,2013-03-29 06:42:00,
2013-03-28 23:51:00,41.0,29.0,-100.00,SE,137,2.0,5.0,62,0.00,,,-99.99,,2013-03-29 06:51:00,